createdAt,value
2018-06-22T08:39:20.500Z,164.00
2018-06-22T08:40:20.442Z,160.00
2018-06-22T08:41:20.388Z,164.00
2018-06-22T08:50:07.521Z,168.00
2018-06-22T08:51:07.428Z,176.00
2018-06-22T08:52:07.388Z,184.00
2018-06-22T08:53:07.413Z,188.00
2018-06-22T08:54:07.276Z,196.00
2018-06-22T08:55:07.224Z,148.00
2018-06-22T08:56:07.181Z,164.00
2018-06-22T08:57:07.117Z,172.00
2018-06-22T08:58:07.059Z,152.00
2018-06-22T08:59:07.005Z,152.00
2018-06-22T09:00:06.959Z,140.00
2018-06-22T09:01:06.909Z,148.00
2018-06-22T09:02:06.937Z,172.00
2018-06-22T09:03:06.868Z,152.00
2018-06-22T09:04:06.819Z,160.00
2018-06-22T09:05:06.783Z,156.00
2018-06-22T09:06:06.712Z,148.00
2018-06-22T09:07:06.666Z,128.00
2018-06-22T09:08:00.274Z,124.00
2018-06-22T09:10:44.370Z,124.00
2018-06-22T09:11:44.258Z,128.00
2018-06-22T09:12:54.328Z,108.00
2018-06-22T09:13:04.329Z,104.00
2018-06-22T09:13:14.304Z,100.00
2018-06-22T09:13:24.294Z,100.00
2018-06-22T09:13:34.278Z,100.00
2018-06-22T09:13:44.269Z,100.00
2018-06-22T09:13:54.260Z,100.00
2018-06-22T09:14:04.252Z,100.00
2018-06-22T09:14:14.238Z,104.00
2018-06-22T09:14:24.261Z,108.00
2018-06-22T09:14:34.281Z,108.00
2018-06-22T09:14:44.209Z,112.00
2018-06-22T09:14:54.199Z,112.00
2018-06-22T09:15:04.186Z,116.00
2018-06-22T09:15:14.180Z,124.00
2018-06-22T09:15:24.170Z,144.00
2018-06-22T09:15:34.162Z,140.00
2018-06-22T09:15:44.147Z,128.00
2018-06-22T09:15:54.138Z,132.00
2018-06-22T09:16:04.128Z,156.00
2018-06-22T09:16:14.118Z,160.00
2018-06-22T09:16:24.108Z,188.00
2018-06-22T09:16:34.100Z,192.00
2018-06-22T09:16:44.278Z,148.00
2018-06-22T09:16:54.099Z,144.00
2018-06-22T09:17:04.116Z,128.00
2018-06-22T09:17:14.078Z,128.00
2018-06-22T09:17:24.058Z,132.00
2018-06-22T09:17:34.051Z,136.00
2018-06-22T09:17:44.033Z,144.00
2018-06-22T09:17:54.025Z,196.00
2018-06-22T09:18:04.016Z,196.00
2018-06-22T09:18:14.046Z,132.00
2018-06-22T09:18:24.023Z,136.00
2018-06-22T09:18:33.989Z,132.00
2018-06-22T09:18:43.980Z,132.00
2018-06-22T09:18:53.967Z,132.00
2018-06-22T09:19:03.959Z,136.00
2018-06-22T09:19:13.948Z,136.00
2018-06-22T09:19:23.964Z,152.00
2018-06-22T09:19:34.017Z,140.00
2018-06-22T09:19:43.995Z,136.00
2018-06-22T09:19:53.913Z,136.00
2018-06-22T09:20:03.901Z,132.00
2018-06-22T09:20:13.917Z,136.00
2018-06-22T09:20:23.885Z,172.00
2018-06-22T09:20:33.874Z,172.00
2018-06-22T09:20:43.864Z,144.00
2018-06-22T09:20:53.850Z,152.00
2018-06-22T09:21:03.841Z,144.00
2018-06-22T09:21:13.832Z,144.00
2018-06-22T09:21:23.818Z,148.00
2018-06-22T09:21:33.817Z,148.00
2018-06-22T09:21:43.801Z,144.00
2018-06-22T09:21:53.792Z,140.00
2018-06-22T09:22:03.779Z,136.00
2018-06-22T09:22:13.770Z,140.00
2018-06-22T09:22:23.767Z,140.00
2018-06-22T09:22:33.755Z,140.00
2018-06-22T09:22:43.739Z,136.00
2018-06-22T09:22:53.736Z,132.00
2018-06-22T09:23:03.723Z,132.00
2018-06-22T09:23:13.715Z,132.00
2018-06-22T09:23:23.728Z,132.00
2018-06-22T09:23:33.768Z,128.00
2018-06-22T09:23:43.758Z,128.00
2018-06-22T09:23:53.753Z,120.00
2018-06-22T09:24:03.738Z,120.00
2018-06-22T09:24:13.726Z,120.00
2018-06-22T09:24:23.722Z,116.00
2018-06-22T09:24:33.712Z,116.00
2018-06-22T09:24:43.733Z,116.00
2018-06-22T09:24:53.686Z,112.00
2018-06-22T09:25:03.674Z,112.00
2018-06-22T09:25:13.682Z,112.00
2018-06-22T09:25:23.660Z,108.00
2018-06-22T09:25:33.653Z,104.00
2018-06-22T09:25:43.639Z,104.00
2018-06-22T09:25:53.629Z,104.00
2018-06-22T09:26:28.884Z,96.00
2018-06-22T09:26:38.877Z,92.00
2018-06-22T09:26:48.881Z,92.00
2018-06-22T09:26:58.871Z,88.00
2018-06-22T09:27:08.866Z,92.00
2018-06-22T09:27:18.865Z,88.00
2018-06-22T09:27:28.871Z,84.00
2018-06-22T09:27:38.856Z,84.00
2018-06-22T09:27:48.854Z,80.00
2018-06-22T09:27:58.846Z,72.00
2018-06-22T09:28:08.840Z,72.00
2018-06-22T09:28:18.840Z,72.00
2018-06-22T09:28:28.857Z,72.00
2018-06-22T09:28:38.868Z,68.00
2018-06-22T09:28:48.823Z,72.00
2018-06-22T09:28:58.822Z,68.00
2018-06-22T09:29:08.818Z,68.00
2018-06-22T09:29:18.817Z,76.00
2018-06-22T09:29:28.810Z,80.00
2018-06-22T09:29:38.806Z,84.00
2018-06-22T09:29:48.801Z,96.00
2018-06-22T09:29:58.807Z,104.00
2018-06-22T09:30:08.795Z,112.00
2018-06-22T09:30:18.789Z,128.00
2018-06-22T09:30:28.788Z,144.00
2018-06-22T09:30:38.807Z,156.00
2018-06-22T09:30:48.787Z,160.00
2018-06-22T09:30:58.777Z,164.00
2018-06-22T09:31:08.774Z,168.00
2018-06-22T09:31:18.787Z,172.00
2018-06-22T09:31:28.773Z,176.00
2018-06-22T09:31:38.763Z,176.00
2018-06-22T09:31:48.762Z,180.00
2018-06-22T09:31:58.757Z,180.00
2018-06-22T09:32:08.757Z,184.00
2018-06-22T09:32:18.750Z,184.00
2018-06-22T09:32:28.743Z,188.00
2018-06-22T09:32:38.743Z,192.00
2018-06-22T09:32:48.738Z,192.00
2018-06-22T09:32:58.734Z,192.00
2018-06-22T09:33:08.732Z,188.00
2018-06-22T09:33:18.725Z,192.00
2018-06-22T09:33:28.722Z,192.00
2018-06-22T09:33:38.730Z,192.00
2018-06-22T09:33:48.720Z,192.00
2018-06-22T09:33:58.711Z,192.00
2018-06-22T09:34:08.706Z,196.00
2018-06-22T09:34:18.727Z,196.00
2018-06-22T09:34:28.697Z,196.00
2018-06-22T09:34:38.691Z,196.00
2018-06-22T09:34:48.688Z,192.00
2018-06-22T09:34:58.686Z,192.00
2018-06-22T09:35:08.685Z,192.00
2018-06-22T09:35:18.677Z,180.00
2018-06-22T09:35:28.672Z,184.00
2018-06-22T09:35:38.672Z,184.00
2018-06-22T09:35:48.660Z,180.00
2018-06-22T09:35:58.660Z,184.00
2018-06-22T09:36:08.653Z,184.00
2018-06-22T09:36:18.659Z,188.00
2018-06-22T09:36:28.651Z,188.00
2018-06-22T09:36:38.708Z,188.00
2018-06-22T09:36:48.673Z,184.00
2018-06-22T09:36:58.637Z,188.00
2018-06-22T09:37:08.635Z,184.00
2018-06-22T09:37:18.629Z,184.00
2018-06-22T09:37:28.625Z,184.00
2018-06-22T09:37:38.625Z,184.00
2018-06-22T09:37:48.617Z,188.00
2018-06-22T09:37:58.614Z,184.00
2018-06-22T09:38:08.613Z,188.00
